Down Up Stop Top
)

OHZ055
There are no active watches, warnings or advisories

Record high temperature 104.2°F Record low temperature -13.0°F Record high gust 50.9 mph Record high average 34.5 mph Record daily rain 3.21 in. Record low windchill -32.3°F Record high barometer 30.918 in. Record low barometer 29.140 in.
Daily high pressure 30.108 in. Daily low pressure 30.097 in. Daily low windchill 60.4°F Daily high heat index 64.7°F Daily high gust speed 1 mph NE Daily high average speed 0 mph NE
Groveport, OH Weather
LAST READING AT TIME: 01:45 DATE: September 19 2019, time of next update: 02:00
Current Weathermostly clear/Night Current Temperature 60.4°F (15.8°C), Apparent temp 61.2°F
Maximum Temperature (since midnight)64.7°F at: 00:00 Minimum Temperature (since midnight)60.4°F at: 01:43
Average windspeed (ten minute)0.0 mph Wind Direction (ten minute)SE (135°)
Windchill Temperature 60.4°F Maximum Gust (last hour)1.0 mph at: 00:45
Maximum Gust (since midnight)1.2 mph at: 00:06 Maximum 1 minute average (since midnight)0.1 mph at: 01:06
Rainfall (last hour)0.00 in. (0.0 mm) Rainfall (since midnight)0.00 in. (0.0 mm) ---
Rainfall This month 1.08 in. (27.4 mm) Rainfall To date this year 36.05 in. (915.7 mm)
Maximum rain per minute (last hour)0.00 in/min Maximum rain per hour (last 6 hours)0.00 in/hour
Yesterdays rainfall 0.00 in DewPoint 50.6°F (Wet Bulb :55.2°F )
Humidity 70 %, Humidex 63.0°F Barometer corrected to msl30.10 in. (1019.4 hPa)
Pressure change -0.00 in. (last hour) Trend (last hour)STEADY
Pressure change (last 12 hours)-0.00 in Pressure change (last 6 hours)+0.03 in
Current Indoor Temp. 74.5°F
Current Indoor Hum. 57%

This page is updated from recent data collected by a DAVIS VANTAGE PRO weather station Use the Reload or Refresh facility on your browser to retrieve the latest data.

Status report of weather station: On line since March 2007


Latest Web Cam Image


Weather report/warning/Metars

Expires:201909190900;;007964
FPUS51 KILN 190530
ZFPILN

Zone Forecast Product
National Weather Service Wilmington OH
129 AM EDT Thu Sep 19 2019


OHZ055-190900-
Franklin OH-
Including the city of Columbus
129 AM EDT Thu Sep 19 2019

.REST OF TONIGHT...Clear. Lows in the mid 50s. East winds 5 to
10 mph. 
.THURSDAY...Mostly sunny. Highs in the mid 80s. Southeast winds
5 to 10 mph. 
.THURSDAY NIGHT...Mostly clear. Lows around 60. Southeast winds
5 to 10 mph. 
.FRIDAY...Partly cloudy. A slight chance of showers in the
morning. Highs in the upper 80s. South winds 5 to 10 mph. Chance
of rain 20 percent. 
.FRIDAY NIGHT...Partly cloudy. Lows in the lower 60s. South winds
5 to 10 mph. 
.SATURDAY...Partly cloudy. Hot with highs around 90. 
.SATURDAY NIGHT...Partly cloudy. Lows in the mid 60s. 
.SUNDAY...Partly cloudy. Highs in the mid 80s. 
.SUNDAY NIGHT...Mostly cloudy with a chance of showers. Lows in
the mid 60s. Chance of rain 50 percent. 
.MONDAY...Mostly cloudy with a chance of showers. Highs around
80. Chance of rain 50 percent. 
.MONDAY NIGHT...Partly cloudy. A chance of showers in the
evening. Lows in the upper 50s. Chance of rain 40 percent. 
.TUESDAY...Mostly sunny. Highs in the upper 70s. 
.TUESDAY NIGHT...Mostly clear. Lows in the upper 50s. 
.WEDNESDAY...Partly cloudy. Highs around 80. 

$$


Expires:201909190930;;001817
FPUS51 KBUF 190216
ZFPBUF

Zone Forecasts for Western New York
National Weather Service Buffalo NY
1016 PM EDT Wed Sep 18 2019


NYZ010-190930-
Northern Erie-
Including the city of Buffalo
1016 PM EDT Wed Sep 18 2019

.OVERNIGHT...Mainly clear. Lows ranging from the upper 40s inland to
the mid 50s along the Lake Erie shore. Light southeast winds. 
.THURSDAY...Sunny. Highs in the upper 70s. Light south winds. 
.THURSDAY NIGHT...Mainly clear. Lows ranging from the mid 50s inland
to the upper 50s along the Lake Erie shore. Light winds. 
.FRIDAY...Sunny, warm with highs around 80. Light winds. 
.FRIDAY NIGHT...Mainly clear. Lows in the upper 50s. Light winds. 
.SATURDAY...Mostly sunny. Highs in the lower 80s. 
.SATURDAY NIGHT...Partly cloudy. Lows in the mid 60s. 
.SUNDAY...Partly sunny with a 30 percent chance of showers. Highs in
the lower 80s. 
.SUNDAY NIGHT...Showers likely. Lows in the mid 60s. Chance of rain
60 percent. 
.MONDAY...Showers likely. Highs in the mid 70s. Chance of rain
60 percent. 
.MONDAY NIGHT...Partly cloudy with a 50 percent chance of showers.
Lows in the mid 50s. 
.TUESDAY...Mostly sunny. Highs around 70. 
.TUESDAY NIGHT...Partly cloudy. Lows in the lower 50s. 
.WEDNESDAY...Mostly sunny. Highs in the lower 70s. 

$$


Expires:201909191615;;001191
FPUS51 KGYX 190206
ZFPGYX

Zone Forecasts for New Hampshire and western Maine
National Weather Service Gray ME
1006 PM EDT Wed Sep 18 2019


MEZ023-191615-
Coastal York-
Including the cities of Biddeford, Saco, Old Orchard Beach, 
and Kittery
1006 PM EDT Wed Sep 18 2019

...FROST ADVISORY IN EFFECT UNTIL 9 AM EDT THURSDAY...

.OVERNIGHT...Clear. Areas of frost. Lows in the lower 40s. Light and
variable winds. 
.THURSDAY...Sunny. Highs in the upper 60s. Light and variable winds.
.THURSDAY NIGHT...Clear. Lows in the lower 40s. Light and variable
winds. 
.FRIDAY...Mostly sunny. Highs in the upper 70s. Light and variable
winds. 
.FRIDAY NIGHT...Mostly clear. Lows in the mid 50s. Light and
variable winds. 
.SATURDAY...Mostly sunny. Highs in the upper 70s. 
.SATURDAY NIGHT...Mostly clear. Lows in the mid 50s. 
.SUNDAY...Mostly sunny. Highs in the upper 70s. 
.SUNDAY NIGHT...Partly cloudy. Lows around 60. 
.MONDAY...Partly sunny with a 40 percent chance of showers. Highs in
the upper 70s. 
.MONDAY NIGHT...Mostly cloudy in the evening, then becoming partly
cloudy. A 40 percent chance of showers. Lows in the upper 50s. 
.TUESDAY...Partly sunny with a 40 percent chance of showers. Highs
in the lower 70s. 
.TUESDAY NIGHT...Partly cloudy. A chance of showers in the evening.
Lows around 50. Chance of rain 30 percent. 
.WEDNESDAY...Partly sunny. Highs around 70. 

$$


PORT COLUMBUS INTERNATIONAL  AIRPORT, OH, United States (KCMH) 40-00N 82-53W 247M
Sep 19, 2019 - 12:51 AM EDT / 2019.09.19 0451 UTC
Wind: from the E (080 degrees) at 7 MPH (6 KT):0
Visibility: 10 mile(s):0
Sky conditions: mostly clear
Temperature: 64.0 F (17.8 C)
Dew Point: 46.0 F (7.8 C)
Relative Humidity: 51%
Pressure (altimeter): 30.14 in. Hg (1020 hPa)
ob: KCMH 190451Z 08006KT 10SM FEW250 18/08 A3014 RMK AO2 SLP202 T01780078 402890167
cycle: 5
BOSTON LOGAN INTERNATIONAL, MA, United States (KBOS) 42-22N 071-01W 54M
Sep 19, 2019 - 12:54 AM EDT / 2019.09.19 0454 UTC
Wind: from the N (010 degrees) at 7 MPH (6 KT):0
Visibility: 10 mile(s):0
Sky conditions: mostly clear
Temperature: 54.0 F (12.2 C)
Dew Point: 43.0 F (6.1 C)
Relative Humidity: 66%
Pressure (altimeter): 30.34 in. Hg (1027 hPa)
ob: KBOS 190454Z 01006KT 10SM FEW040 12/06 A3034 RMK AO2 SLP272 T01220061 401830117
cycle: 5
GREATER BUFFALO INTERNATIONAL  AIRPORT , NY, United States (KBUF) 42-56N 078-44W 225M
Sep 19, 2019 - 12:54 AM EDT / 2019.09.19 0454 UTC
Wind: from the SE (130 degrees) at 6 MPH (5 KT):0
Visibility: 10 mile(s):0
Sky conditions: mostly cloudy
Temperature: 57.9 F (14.4 C)
Dew Point: 51.1 F (10.6 C)
Relative Humidity: 77%
Pressure (altimeter): 30.26 in. Hg (1024 hPa)
ob: KBUF 190454Z 13005KT 10SM BKN250 14/11 A3026 RMK AO2 SLP244 T01440106 402390111
cycle: 5
HARTSFIELD-JACKSON ATLANTA, GA, United States (KATL) 33-39N 84-26W
Sep 19, 2019 - 12:52 AM EDT / 2019.09.19 0452 UTC
Wind: from the ESE (110 degrees) at 10 MPH (9 KT):0
Visibility: 10 mile(s):0
Sky conditions: mostly cloudy
Temperature: 72.0 F (22.2 C)
Dew Point: 59.0 F (15.0 C)
Relative Humidity: 63%
Pressure (altimeter): 30.14 in. Hg (1020 hPa)
ob: KATL 190452Z 11009KT 10SM BKN032 22/15 A3014 RMK AO2 SLP194 T02220150 403170217
cycle: 5
GREATER ROCHESTER INTERNATIONAL , NY, United States (KROC) 43-07N 077-41W 178M
Sep 19, 2019 - 12:54 AM EDT / 2019.09.19 0454 UTC
Wind: Calm:0
Visibility: 10 mile(s):0
Sky conditions: partly cloudy
Temperature: 54.0 F (12.2 C)
Dew Point: 50.0 F (10.0 C)
Relative Humidity: 86%
Pressure (altimeter): 30.28 in. Hg (1025 hPa)
ob: KROC 190454Z 00000KT 10SM FEW180 SCT250 12/10 A3028 RMK AO2 SLP256 T01220100 402390094
cycle: 5
HYANNIS BARNSTABLE BOARDMN, MA, United States (KHYA) 41-40N 070-16W 22M
Sep 19, 2019 - 12:56 AM EDT / 2019.09.19 0456 UTC
Wind: from the N (010 degrees) at 3 MPH (3 KT):0
Visibility: 10 mile(s):0
Sky conditions: clear
Temperature: 48.9 F (9.4 C)
Dew Point: 42.1 F (5.6 C)
Relative Humidity: 77%
Pressure (altimeter): 30.29 in. Hg (1025 hPa)
ob: KHYA 190456Z AUTO 01003KT 10SM CLR 09/06 A3029 RMK AO2 SLP259 T00940056 401670083
cycle: 5



The data is logged at two minute intervals, but there is data recorded every minute.

Use the RELOAD facility on your browser to retrieve the latest data.

Click here for a daily update of the averages/extremes to date for the month

Created by "Weather Display" software version 10.37S at this start time/date 22:17:27 9/18/2019